METAR Data
IDs: Format: Raw Decoded Include TAF

Data at: 1026 UTC 28 Sep 2021

ESOW 281020Z 13013KT 9999 BKN023 13/08 Q1024